createdAt,value
2022-10-19T00:04:17.316Z,15.42
2022-10-19T00:09:20.290Z,15.33
2022-10-19T00:14:17.136Z,15.08
2022-10-19T00:19:17.111Z,15.42
2022-10-19T00:24:17.059Z,15.38
2022-10-19T00:29:16.970Z,15.38
2022-10-19T00:34:16.910Z,15.41
2022-10-19T00:39:16.870Z,15.06
2022-10-19T00:44:16.758Z,14.74
2022-10-19T00:49:16.755Z,14.43
2022-10-19T00:54:16.612Z,14.34
2022-10-19T00:59:16.615Z,14.62
2022-10-19T01:04:16.504Z,13.88
2022-10-19T01:09:19.961Z,13.56
2022-10-19T01:14:16.591Z,12.99
2022-10-19T01:19:23.715Z,12.85
2022-10-19T01:24:23.638Z,13.62
2022-10-19T01:29:16.120Z,13.61
2022-10-19T01:34:16.107Z,12.84
2022-10-19T01:39:16.025Z,12.29
2022-10-19T01:44:15.965Z,12.09
2022-10-19T01:49:16.059Z,11.83
2022-10-19T01:54:15.775Z,11.59
2022-10-19T01:59:15.741Z,11.41
2022-10-19T02:04:15.731Z,11.25
2022-10-19T02:09:19.156Z,11.19
2022-10-19T02:14:15.540Z,11.11
2022-10-19T02:19:15.553Z,11.17
2022-10-19T02:24:15.475Z,11.46
2022-10-19T02:29:15.335Z,12.26
2022-10-19T02:34:15.262Z,12.66
2022-10-19T02:39:15.235Z,12.75
2022-10-19T02:44:15.136Z,12.75
2022-10-19T02:49:15.066Z,13.02
2022-10-19T02:54:14.970Z,13.47
2022-10-19T02:59:14.977Z,13.73
2022-10-19T03:05:25.453Z,13.99
2022-10-19T03:10:33.247Z,14.24
2022-10-19T03:15:32.780Z,14.19
2022-10-19T03:20:33.096Z,13.84
2022-10-19T03:25:25.175Z,13.32
2022-10-19T03:30:25.195Z,13.29
2022-10-19T03:35:25.071Z,13.29
2022-10-19T03:40:25.123Z,13.43
2022-10-19T03:45:24.931Z,13.30
2022-10-19T03:50:24.915Z,13.17
2022-10-19T03:55:27.810Z,13.14
2022-10-19T04:00:24.754Z,13.03
2022-10-19T04:05:24.695Z,13.51
2022-10-19T04:10:24.626Z,13.43
2022-10-19T04:15:32.456Z,13.98
2022-10-19T04:20:31.981Z,13.98
2022-10-19T04:25:24.460Z,13.49
2022-10-19T04:30:24.354Z,13.36
2022-10-19T04:35:24.305Z,13.36
2022-10-19T04:40:32.060Z,13.65
2022-10-19T04:45:31.629Z,13.74
2022-10-19T04:50:24.112Z,13.33
2022-10-19T04:55:27.135Z,12.89
2022-10-19T05:00:23.965Z,11.93
2022-10-19T05:05:23.923Z,12.81
2022-10-19T05:10:23.826Z,13.11
2022-10-19T05:15:23.802Z,13.12
2022-10-19T05:20:23.690Z,13.12
2022-10-19T05:25:23.728Z,13.14
2022-10-19T05:30:23.555Z,13.04
2022-10-19T05:35:24.095Z,12.97
2022-10-19T05:40:23.493Z,13.06
2022-10-19T05:45:23.556Z,12.87
2022-10-19T05:50:30.842Z,13.12
2022-10-19T05:55:33.773Z,12.97
2022-10-19T06:00:23.197Z,11.68
2022-10-19T06:05:23.202Z,11.14
2022-10-19T06:10:23.193Z,11.07
2022-10-19T06:15:23.011Z,11.02
2022-10-19T06:20:22.902Z,11.09
2022-10-19T06:25:22.896Z,11.52
2022-10-19T06:30:22.974Z,11.80
2022-10-19T06:35:23.347Z,12.56
2022-10-19T06:40:23.018Z,12.96
2022-10-19T06:45:22.774Z,13.09
2022-10-19T06:50:22.509Z,13.40
2022-10-19T06:55:25.499Z,13.58
2022-10-19T07:00:22.466Z,13.52
2022-10-19T07:05:22.362Z,13.83
2022-10-19T07:10:22.258Z,14.10
2022-10-19T07:15:22.332Z,14.27
2022-10-19T07:20:30.072Z,14.13
2022-10-19T07:25:22.176Z,14.16
2022-10-19T07:30:22.021Z,14.47
2022-10-19T07:35:21.901Z,14.67
2022-10-19T07:40:21.913Z,14.84
2022-10-19T07:45:21.798Z,14.78
2022-10-19T07:50:21.811Z,14.90
2022-10-19T07:55:24.711Z,14.93
2022-10-19T08:00:21.670Z,14.74
2022-10-19T08:05:21.604Z,15.12
2022-10-19T08:10:21.508Z,14.95
2022-10-19T08:15:21.512Z,14.95
2022-10-19T08:20:21.366Z,15.23
2022-10-19T08:25:21.383Z,15.42
2022-10-19T08:30:21.234Z,15.49
2022-10-19T08:35:21.230Z,15.78
2022-10-19T08:40:21.107Z,15.74
2022-10-19T08:45:21.175Z,15.99
2022-10-19T08:50:21.026Z,15.86
2022-10-19T08:55:23.957Z,15.48
2022-10-19T09:00:20.952Z,14.83
2022-10-19T09:05:20.766Z,15.21
2022-10-19T09:10:20.680Z,15.42
2022-10-19T09:15:20.799Z,15.28
2022-10-19T09:20:20.546Z,15.15
2022-10-19T09:25:20.519Z,15.06
2022-10-19T09:30:20.555Z,15.19
2022-10-19T09:35:20.446Z,15.08
2022-10-19T09:40:20.462Z,15.08
2022-10-19T09:45:28.230Z,15.43
2022-10-19T09:50:27.914Z,16.16
2022-10-19T09:55:23.235Z,15.09
2022-10-19T10:00:20.047Z,15.12
2022-10-19T10:05:20.072Z,15.28
2022-10-19T10:10:30.420Z,15.57
2022-10-19T10:15:26.850Z,15.49
2022-10-19T10:20:19.915Z,14.84
2022-10-19T10:25:19.856Z,15.05
2022-10-19T10:30:27.783Z,15.76
2022-10-19T10:35:28.755Z,15.89
2022-10-19T10:40:27.090Z,16.03
2022-10-19T10:45:27.615Z,16.01
2022-10-19T10:50:26.930Z,16.04
2022-10-19T10:55:22.381Z,15.48
2022-10-19T11:00:27.376Z,15.88
2022-10-19T11:05:19.239Z,15.92
2022-10-19T11:10:19.191Z,15.79
2022-10-19T11:15:19.104Z,15.54
2022-10-19T11:20:19.080Z,15.46
2022-10-19T11:25:19.091Z,15.84
2022-10-19T11:30:18.901Z,16.06
2022-10-19T11:35:19.035Z,16.38
2022-10-19T11:40:22.105Z,16.68
2022-10-19T11:45:18.818Z,16.35
2022-10-19T11:50:18.698Z,16.45
2022-10-19T11:55:22.184Z,16.38
2022-10-19T12:00:37.733Z,16.11
2022-10-19T12:05:19.665Z,16.07
2022-10-19T12:11:44.993Z,16.60
2022-10-19T12:16:44.943Z,17.10
2022-10-19T12:21:44.691Z,16.88
2022-10-19T12:26:44.648Z,16.31
2022-10-19T12:31:44.715Z,16.67
2022-10-19T12:36:44.407Z,16.00
2022-10-19T12:41:44.480Z,16.01
2022-10-19T12:46:46.998Z,15.96
2022-10-19T12:51:44.364Z,15.70
2022-10-19T12:56:44.343Z,15.68
2022-10-19T13:01:49.440Z,15.59
2022-10-19T13:11:03.497Z,16.26
2022-10-19T13:16:03.385Z,15.89
2022-10-19T13:26:52.121Z,15.52
2022-10-19T13:31:51.971Z,15.84
2022-10-19T13:36:52.034Z,15.86
2022-10-19T13:41:51.917Z,15.36
2022-10-19T13:46:51.915Z,15.68
2022-10-19T13:51:52.740Z,15.79
2022-10-19T13:58:48.028Z,16.09
2022-10-19T14:05:05.860Z,16.42
2022-10-19T14:10:06.071Z,16.33
2022-10-19T14:15:06.373Z,15.36
2022-10-19T14:51:09.063Z,15.23
2022-10-19T15:08:31.009Z,14.72
2022-10-19T15:38:34.044Z,14.67
2022-10-19T15:43:34.055Z,14.21
2022-10-19T15:48:41.587Z,14.34
2022-10-19T15:53:33.917Z,13.87
2022-10-19T15:58:36.264Z,14.09
2022-10-19T16:03:33.881Z,14.20
2022-10-19T16:37:14.633Z,13.77
2022-10-19T16:42:14.121Z,13.70
2022-10-19T16:47:16.702Z,13.55
2022-10-19T17:20:08.356Z,13.43
2022-10-19T17:25:06.721Z,13.41
2022-10-19T17:30:06.932Z,13.47
2022-10-19T18:18:56.076Z,12.92
2022-10-19T18:23:56.064Z,12.87
2022-10-19T18:30:15.644Z,12.79
2022-10-19T18:35:15.637Z,12.08
2022-10-19T18:40:15.646Z,11.71
2022-10-19T18:45:15.337Z,11.06
2022-10-19T18:55:15.232Z,10.15
2022-10-19T19:21:17.837Z,8.44
2022-10-19T19:27:58.297Z,8.39
2022-10-19T19:32:58.045Z,8.18
2022-10-19T19:37:58.092Z,8.17
2022-10-19T19:56:46.685Z,7.78
2022-10-19T20:01:47.216Z,7.71
2022-10-19T20:06:47.301Z,7.60
2022-10-19T20:32:06.961Z,7.38
2022-10-19T20:37:07.079Z,7.75
2022-10-19T20:48:19.733Z,7.41
2022-10-19T21:01:32.360Z,7.22
2022-10-19T21:11:56.167Z,7.47
2022-10-19T21:17:05.918Z,8.10
2022-10-19T21:24:39.936Z,7.62
2022-10-19T21:48:02.456Z,7.34
2022-10-19T22:19:23.415Z,6.81
